ENEV/EVE METAR and TAF weather

Enter ICAO airport designator
Station Type Date Time Source
ENEV METAR 2022/01/26 19:20 UTC NOAA

ENEV 261920Z VRB03KT 9999 FEW037 M06/M07 Q0993 RMK WIND 1400FT 17010KT


Station Type Date Time Source
ENEV Decoded METAR 2022/01/26 19:20 UTC NOAA

Evenes, Norway (ENEV) 68-31N 016-41E 26M
Jan 26, 2022 - 02:20 PM EST / 2022.01.26 1920 UTC
Wind: Variable at 3 MPH (3 KT):0
Visibility: greater than 7 mile(s):0
Sky conditions: mostly clear
Temperature: 21 F (-6 C)
Dew Point: 19 F (-7 C)
Relative Humidity: 92%
Pressure (altimeter): 29.32 in. Hg (0993 hPa)
ob: ENEV 261920Z VRB03KT 9999 FEW037 M06/M07 Q0993 RMK WIND 1400FT 17010KT
cycle: 19

Station Type Date Time Source
ENEV TAF 2010/02/05 07:50 UTC NOAA

METAR ENEV 050750Z 14007KT 9999 FEW040 SCT055 M04/M09 Q1019

Example: see airport list